sensor_id;sensor_type;location;lat;lon;timestamp;pressure;altitude;pressure_sealevel;temperature;humidity
77469;BME280;68840;50.272;12.818;2023-06-01T00:00:09;96324;;;12.5;49.5
77469;BME280;68840;50.272;12.818;2023-06-01T00:02:06;96325;;;12.5;49.3
77469;BME280;68840;50.272;12.818;2023-06-01T00:04:07;96323;;;12.4;49.7
77469;BME280;68840;50.272;12.818;2023-06-01T00:06:06;96322;;;12.4;49.5
77469;BME280;68840;50.272;12.818;2023-06-01T00:08:05;96322;;;12.3;49.2
77469;BME280;68840;50.272;12.818;2023-06-01T00:10:06;96320;;;12.2;49.9
77469;BME280;68840;50.272;12.818;2023-06-01T00:12:06;96320;;;12.2;50.8
77469;BME280;68840;50.272;12.818;2023-06-01T00:14:05;96318;;;12.2;50.5
77469;BME280;68840;50.272;12.818;2023-06-01T00:16:05;96318;;;12.1;51.7
77469;BME280;68840;50.272;12.818;2023-06-01T00:18:06;96316;;;12.1;51.6
77469;BME280;68840;50.272;12.818;2023-06-01T00:20:08;96314;;;12.1;50.8
77469;BME280;68840;50.272;12.818;2023-06-01T00:22:07;96314;;;12.1;50.1
77469;BME280;68840;50.272;12.818;2023-06-01T00:24:06;96315;;;12.1;51.1
77469;BME280;68840;50.272;12.818;2023-06-01T00:26:05;96315;;;12.0;50.3
77469;BME280;68840;50.272;12.818;2023-06-01T00:28:05;96314;;;12.0;51.7
77469;BME280;68840;50.272;12.818;2023-06-01T00:30:06;96311;;;11.9;52.1
77469;BME280;68840;50.272;12.818;2023-06-01T00:32:06;96312;;;11.9;51.8
77469;BME280;68840;50.272;12.818;2023-06-01T00:34:07;96313;;;11.9;52.0
77469;BME280;68840;50.272;12.818;2023-06-01T00:36:06;96312;;;11.9;52.0
77469;BME280;68840;50.272;12.818;2023-06-01T00:38:06;96312;;;11.8;51.5
77469;BME280;68840;50.272;12.818;2023-06-01T00:40:07;96311;;;11.8;52.8
77469;BME280;68840;50.272;12.818;2023-06-01T00:42:06;96310;;;11.8;51.8
77469;BME280;68840;50.272;12.818;2023-06-01T00:44:05;96310;;;11.8;51.5
77469;BME280;68840;50.272;12.818;2023-06-01T00:46:05;96311;;;11.8;51.0
77469;BME280;68840;50.272;12.818;2023-06-01T00:48:06;96311;;;11.7;51.1
77469;BME280;68840;50.272;12.818;2023-06-01T00:50:06;96316;;;11.7;51.0
77469;BME280;68840;50.272;12.818;2023-06-01T00:52:06;96316;;;11.7;52.1
77469;BME280;68840;50.272;12.818;2023-06-01T00:54:05;96316;;;11.6;51.8
77469;BME280;68840;50.272;12.818;2023-06-01T00:56:05;96315;;;11.6;51.9
77469;BME280;68840;50.272;12.818;2023-06-01T00:58:06;96311;;;11.5;53.5
77469;BME280;68840;50.272;12.818;2023-06-01T01:00:09;96309;;;11.5;53.6
77469;BME280;68840;50.272;12.818;2023-06-01T01:02:08;96308;;;11.5;53.9
77469;BME280;68840;50.272;12.818;2023-06-01T01:04:05;96306;;;11.5;53.6
77469;BME280;68840;50.272;12.818;2023-06-01T01:06:13;96304;;;11.4;53.7
77469;BME280;68840;50.272;12.818;2023-06-01T01:08:11;96302;;;11.4;53.2
77469;BME280;68840;50.272;12.818;2023-06-01T01:10:12;96302;;;11.4;53.1
77469;BME280;68840;50.272;12.818;2023-06-01T01:12:12;96302;;;11.4;52.4
77469;BME280;68840;50.272;12.818;2023-06-01T01:14:11;96302;;;11.3;53.5
77469;BME280;68840;50.272;12.818;2023-06-01T01:16:12;96307;;;11.3;52.9
77469;BME280;68840;50.272;12.818;2023-06-01T01:18:11;96308;;;11.2;53.7
77469;BME280;68840;50.272;12.818;2023-06-01T01:20:09;96308;;;11.2;52.9
77469;BME280;68840;50.272;12.818;2023-06-01T01:22:19;96310;;;11.1;54.7
77469;BME280;68840;50.272;12.818;2023-06-01T01:24:15;96311;;;11.1;54.0
77469;BME280;68840;50.272;12.818;2023-06-01T01:26:18;96309;;;11.1;55.0
77469;BME280;68840;50.272;12.818;2023-06-01T01:30:06;96306;;;11.0;56.2
77469;BME280;68840;50.272;12.818;2023-06-01T01:32:07;96304;;;11.0;54.0
77469;BME280;68840;50.272;12.818;2023-06-01T01:34:06;96302;;;11.0;54.1
77469;BME280;68840;50.272;12.818;2023-06-01T01:36:06;96300;;;11.0;54.0
77469;BME280;68840;50.272;12.818;2023-06-01T01:38:05;96298;;;10.9;55.1
77469;BME280;68840;50.272;12.818;2023-06-01T01:40:06;96296;;;10.9;53.8
77469;BME280;68840;50.272;12.818;2023-06-01T01:42:06;96296;;;10.9;55.9
77469;BME280;68840;50.272;12.818;2023-06-01T01:44:05;96295;;;10.9;54.1
77469;BME280;68840;50.272;12.818;2023-06-01T01:46:12;96294;;;10.9;54.9
77469;BME280;68840;50.272;12.818;2023-06-01T01:48:10;96293;;;10.9;53.7
77469;BME280;68840;50.272;12.818;2023-06-01T01:50:10;96293;;;10.8;53.7
77469;BME280;68840;50.272;12.818;2023-06-01T01:52:09;96293;;;10.8;53.8
77469;BME280;68840;50.272;12.818;2023-06-01T01:54:06;96291;;;10.8;54.3
77469;BME280;68840;50.272;12.818;2023-06-01T01:56:07;96288;;;10.7;53.4
77469;BME280;68840;50.272;12.818;2023-06-01T01:58:06;96285;;;10.7;54.3
77469;BME280;68840;50.272;12.818;2023-06-01T02:00:08;96283;;;10.7;53.6
77469;BME280;68840;50.272;12.818;2023-06-01T02:02:06;96284;;;10.6;54.2
77469;BME280;68840;50.272;12.818;2023-06-01T02:04:07;96281;;;10.6;55.5
77469;BME280;68840;50.272;12.818;2023-06-01T02:06:06;96277;;;10.6;56.9
77469;BME280;68840;50.272;12.818;2023-06-01T02:08:05;96274;;;10.6;55.5
77469;BME280;68840;50.272;12.818;2023-06-01T02:10:06;96275;;;10.5;56.4
77469;BME280;68840;50.272;12.818;2023-06-01T02:12:07;96278;;;10.5;56.9
77469;BME280;68840;50.272;12.818;2023-06-01T02:14:05;96277;;;10.4;55.1
77469;BME280;68840;50.272;12.818;2023-06-01T02:16:06;96275;;;10.4;56.0
77469;BME280;68840;50.272;12.818;2023-06-01T02:18:07;96272;;;10.4;56.3
77469;BME280;68840;50.272;12.818;2023-06-01T02:20:06;96271;;;10.4;55.6
77469;BME280;68840;50.272;12.818;2023-06-01T02:22:05;96271;;;10.4;55.1
77469;BME280;68840;50.272;12.818;2023-06-01T02:24:07;96270;;;10.4;57.0
77469;BME280;68840;50.272;12.818;2023-06-01T02:26:06;96267;;;10.4;57.6
77469;BME280;68840;50.272;12.818;2023-06-01T02:28:07;96267;;;10.4;58.0
77469;BME280;68840;50.272;12.818;2023-06-01T02:30:06;96266;;;10.4;55.9
77469;BME280;68840;50.272;12.818;2023-06-01T02:32:06;96266;;;10.4;55.7
77469;BME280;68840;50.272;12.818;2023-06-01T02:34:05;96266;;;10.3;56.1
77469;BME280;68840;50.272;12.818;2023-06-01T02:36:06;96267;;;10.3;55.6
77469;BME280;68840;50.272;12.818;2023-06-01T02:38:05;96266;;;10.3;56.5
77469;BME280;68840;50.272;12.818;2023-06-01T02:40:06;96267;;;10.2;55.5
77469;BME280;68840;50.272;12.818;2023-06-01T02:42:06;96268;;;10.2;55.1
77469;BME280;68840;50.272;12.818;2023-06-01T02:44:05;96267;;;10.2;56.3
77469;BME280;68840;50.272;12.818;2023-06-01T02:46:05;96265;;;10.2;56.0
77469;BME280;68840;50.272;12.818;2023-06-01T02:48:05;96264;;;10.1;55.5
77469;BME280;68840;50.272;12.818;2023-06-01T02:50:06;96263;;;10.1;54.9
77469;BME280;68840;50.272;12.818;2023-06-01T02:52:06;96262;;;10.1;55.0
77469;BME280;68840;50.272;12.818;2023-06-01T02:54:05;96261;;;10.1;55.8
77469;BME280;68840;50.272;12.818;2023-06-01T02:56:06;96260;;;10.1;55.4
77469;BME280;68840;50.272;12.818;2023-06-01T02:58:08;96258;;;10.0;56.3
77469;BME280;68840;50.272;12.818;2023-06-01T03:00:15;96257;;;10.0;57.5
77469;BME280;68840;50.272;12.818;2023-06-01T03:02:05;96256;;;10.0;58.5
77469;BME280;68840;50.272;12.818;2023-06-01T03:04:07;96255;;;10.0;57.2
77469;BME280;68840;50.272;12.818;2023-06-01T03:06:06;96254;;;10.0;56.2
77469;BME280;68840;50.272;12.818;2023-06-01T03:08:06;96255;;;10.0;56.4
77469;BME280;68840;50.272;12.818;2023-06-01T03:10:06;96255;;;9.9;57.2
77469;BME280;68840;50.272;12.818;2023-06-01T03:12:06;96255;;;9.9;58.0
77469;BME280;68840;50.272;12.818;2023-06-01T03:14:05;96256;;;9.9;58.1
77469;BME280;68840;50.272;12.818;2023-06-01T03:16:05;96257;;;9.9;58.7
77469;BME280;68840;50.272;12.818;2023-06-01T03:18:06;96255;;;9.9;57.7
77469;BME280;68840;50.272;12.818;2023-06-01T03:20:14;96254;;;9.9;56.8
77469;BME280;68840;50.272;12.818;2023-06-01T03:22:06;96250;;;9.9;56.9
77469;BME280;68840;50.272;12.818;2023-06-01T03:24:06;96251;;;9.9;57.5
77469;BME280;68840;50.272;12.818;2023-06-01T03:26:06;96251;;;9.9;57.7
77469;BME280;68840;50.272;12.818;2023-06-01T03:28:05;96252;;;9.9;57.4
77469;BME280;68840;50.272;12.818;2023-06-01T03:30:10;96252;;;9.9;57.5
77469;BME280;68840;50.272;12.818;2023-06-01T03:32:07;96254;;;9.9;57.8
77469;BME280;68840;50.272;12.818;2023-06-01T03:34:05;96256;;;9.9;57.2
77469;BME280;68840;50.272;12.818;2023-06-01T03:36:07;96256;;;9.9;56.9
77469;BME280;68840;50.272;12.818;2023-06-01T03:38:05;96253;;;9.9;56.1
77469;BME280;68840;50.272;12.818;2023-06-01T03:40:10;96253;;;10.0;55.7
77469;BME280;68840;50.272;12.818;2023-06-01T03:42:07;96252;;;10.0;57.6
77469;BME280;68840;50.272;12.818;2023-06-01T03:44:05;96253;;;10.0;57.3
77469;BME280;68840;50.272;12.818;2023-06-01T03:46:05;96255;;;10.1;58.0
77469;BME280;68840;50.272;12.818;2023-06-01T03:48:05;96256;;;10.1;57.9
77469;BME280;68840;50.272;12.818;2023-06-01T03:50:07;96256;;;10.2;58.3
77469;BME280;68840;50.272;12.818;2023-06-01T03:52:06;96255;;;10.2;59.7
77469;BME280;68840;50.272;12.818;2023-06-01T03:54:05;96256;;;10.3;59.8
77469;BME280;68840;50.272;12.818;2023-06-01T03:56:06;96253;;;10.4;60.0
77469;BME280;68840;50.272;12.818;2023-06-01T03:58:07;96250;;;10.5;60.2
77469;BME280;68840;50.272;12.818;2023-06-01T04:00:16;96248;;;10.7;60.1
77469;BME280;68840;50.272;12.818;2023-06-01T04:02:08;96247;;;10.8;59.9
77469;BME280;68840;50.272;12.818;2023-06-01T04:04:05;96247;;;10.9;59.6
77469;BME280;68840;50.272;12.818;2023-06-01T04:06:14;96247;;;11.1;59.2
77469;BME280;68840;50.272;12.818;2023-06-01T04:08:05;96248;;;11.3;58.8
77469;BME280;68840;50.272;12.818;2023-06-01T04:10:06;96244;;;11.5;58.2
77469;BME280;68840;50.272;12.818;2023-06-01T04:12:06;96244;;;11.6;57.9
77469;BME280;68840;50.272;12.818;2023-06-01T04:14:05;96241;;;11.8;57.3
77469;BME280;68840;50.272;12.818;2023-06-01T04:16:06;96242;;;12.0;56.8
77469;BME280;68840;50.272;12.818;2023-06-01T04:18:06;96239;;;12.1;56.7
77469;BME280;68840;50.272;12.818;2023-06-01T04:20:09;96238;;;12.3;55.9
77469;BME280;68840;50.272;12.818;2023-06-01T04:22:05;96235;;;12.5;55.4
77469;BME280;68840;50.272;12.818;2023-06-01T04:24:05;96232;;;12.7;54.5
77469;BME280;68840;50.272;12.818;2023-06-01T04:26:06;96233;;;13.0;53.9
77469;BME280;68840;50.272;12.818;2023-06-01T04:28:05;96234;;;13.3;53.3
77469;BME280;68840;50.272;12.818;2023-06-01T04:30:08;96234;;;13.6;52.7
77469;BME280;68840;50.272;12.818;2023-06-01T04:32:06;96233;;;13.8;52.3
77469;BME280;68840;50.272;12.818;2023-06-01T04:34:05;96234;;;14.1;51.5
77469;BME280;68840;50.272;12.818;2023-06-01T04:36:06;96232;;;14.4;50.9
77469;BME280;68840;50.272;12.818;2023-06-01T04:38:05;96233;;;14.7;50.2
77469;BME280;68840;50.272;12.818;2023-06-01T04:40:08;96233;;;15.0;49.8
77469;BME280;68840;50.272;12.818;2023-06-01T04:42:06;96233;;;15.2;49.4
77469;BME280;68840;50.272;12.818;2023-06-01T04:44:06;96236;;;15.4;49.0
77469;BME280;68840;50.272;12.818;2023-06-01T04:46:05;96237;;;15.5;48.7
77469;BME280;68840;50.272;12.818;2023-06-01T04:48:08;96238;;;15.6;48.4
77469;BME280;68840;50.272;12.818;2023-06-01T04:50:08;96240;;;15.6;48.1
77469;BME280;68840;50.272;12.818;2023-06-01T04:52:06;96237;;;15.7;48.2
77469;BME280;68840;50.272;12.818;2023-06-01T04:54:07;96232;;;15.8;47.9
77469;BME280;68840;50.272;12.818;2023-06-01T04:56:05;96229;;;15.8;47.6
77469;BME280;68840;50.272;12.818;2023-06-01T04:58:06;96229;;;15.9;47.3
77469;BME280;68840;50.272;12.818;2023-06-01T05:00:11;96230;;;15.9;47.3
77469;BME280;68840;50.272;12.818;2023-06-01T05:02:06;96230;;;16.1;46.8
77469;BME280;68840;50.272;12.818;2023-06-01T05:04:05;96231;;;16.3;46.1
77469;BME280;68840;50.272;12.818;2023-06-01T05:06:05;96230;;;16.6;45.7
77469;BME280;68840;50.272;12.818;2023-06-01T05:08:05;96230;;;17.0;44.5
77469;BME280;68840;50.272;12.818;2023-06-01T05:10:08;96230;;;17.4;44.2
77469;BME280;68840;50.272;12.818;2023-06-01T05:12:06;96231;;;17.8;43.4
77469;BME280;68840;50.272;12.818;2023-06-01T05:14:06;96226;;;18.2;42.4
77469;BME280;68840;50.272;12.818;2023-06-01T05:16:06;96226;;;18.6;42.1
77469;BME280;68840;50.272;12.818;2023-06-01T05:18:05;96226;;;19.1;41.4
77469;BME280;68840;50.272;12.818;2023-06-01T05:20:09;96224;;;19.5;40.8
77469;BME280;68840;50.272;12.818;2023-06-01T05:22:05;96220;;;20.0;39.7
77469;BME280;68840;50.272;12.818;2023-06-01T05:24:06;96218;;;20.5;39.4
77469;BME280;68840;50.272;12.818;2023-06-01T05:26:05;96218;;;20.9;39.3
77469;BME280;68840;50.272;12.818;2023-06-01T05:28:06;96216;;;21.3;38.6
77469;BME280;68840;50.272;12.818;2023-06-01T05:30:06;96217;;;21.7;37.4
77469;BME280;68840;50.272;12.818;2023-06-01T05:32:06;96219;;;21.9;36.9
77469;BME280;68840;50.272;12.818;2023-06-01T05:34:05;96219;;;22.3;37.1
77469;BME280;68840;50.272;12.818;2023-06-01T05:36:06;96217;;;22.6;36.1
77469;BME280;68840;50.272;12.818;2023-06-01T05:38:05;96218;;;22.8;35.7
77469;BME280;68840;50.272;12.818;2023-06-01T05:40:08;96220;;;23.0;35.1
77469;BME280;68840;50.272;12.818;2023-06-01T05:42:06;96222;;;23.1;34.5
77469;BME280;68840;50.272;12.818;2023-06-01T05:44:05;96221;;;23.3;34.2
77469;BME280;68840;50.272;12.818;2023-06-01T05:46:06;96220;;;23.5;34.2
77469;BME280;68840;50.272;12.818;2023-06-01T05:48:05;96221;;;23.6;33.7
77469;BME280;68840;50.272;12.818;2023-06-01T05:50:06;96220;;;23.8;33.0
77469;BME280;68840;50.272;12.818;2023-06-01T05:52:05;96219;;;23.7;33.0
77469;BME280;68840;50.272;12.818;2023-06-01T05:54:06;96217;;;23.7;33.4
77469;BME280;68840;50.272;12.818;2023-06-01T05:56:06;96219;;;23.6;32.9
77469;BME280;68840;50.272;12.818;2023-06-01T05:58:05;96219;;;23.5;33.2
77469;BME280;68840;50.272;12.818;2023-06-01T06:00:09;96218;;;23.4;33.6
77469;BME280;68840;50.272;12.818;2023-06-01T06:02:06;96216;;;23.3;33.8
77469;BME280;68840;50.272;12.818;2023-06-01T06:04:06;96218;;;23.1;34.6
77469;BME280;68840;50.272;12.818;2023-06-01T06:06:05;96216;;;22.7;34.7
77469;BME280;68840;50.272;12.818;2023-06-01T06:08:05;96218;;;22.1;35.0
77469;BME280;68840;50.272;12.818;2023-06-01T06:10:06;96216;;;21.4;36.4
77469;BME280;68840;50.272;12.818;2023-06-01T06:12:06;96217;;;20.8;37.1
77469;BME280;68840;50.272;12.818;2023-06-01T06:14:05;96219;;;20.2;38.2
77469;BME280;68840;50.272;12.818;2023-06-01T06:16:05;96223;;;19.8;39.5
77469;BME280;68840;50.272;12.818;2023-06-01T06:18:05;96222;;;19.4;40.4
77469;BME280;68840;50.272;12.818;2023-06-01T06:20:07;96223;;;19.1;41.3
77469;BME280;68840;50.272;12.818;2023-06-01T06:22:05;96222;;;18.9;41.1
77469;BME280;68840;50.272;12.818;2023-06-01T06:24:05;96221;;;18.7;41.1
77469;BME280;68840;50.272;12.818;2023-06-01T06:26:05;96219;;;18.5;41.8
77469;BME280;68840;50.272;12.818;2023-06-01T06:28:06;96219;;;18.3;42.2
77469;BME280;68840;50.272;12.818;2023-06-01T06:30:06;96219;;;18.2;43.0
77469;BME280;68840;50.272;12.818;2023-06-01T06:32:06;96219;;;18.1;42.9
77469;BME280;68840;50.272;12.818;2023-06-01T06:34:05;96218;;;18.0;43.2
77469;BME280;68840;50.272;12.818;2023-06-01T06:36:05;96217;;;17.9;43.3
77469;BME280;68840;50.272;12.818;2023-06-01T06:38:05;96215;;;17.9;43.4
77469;BME280;68840;50.272;12.818;2023-06-01T06:40:06;96216;;;17.9;44.4
77469;BME280;68840;50.272;12.818;2023-06-01T06:42:06;96216;;;17.9;44.5
77469;BME280;68840;50.272;12.818;2023-06-01T06:44:06;96215;;;17.9;44.4
77469;BME280;68840;50.272;12.818;2023-06-01T06:46:07;96215;;;17.8;44.5
77469;BME280;68840;50.272;12.818;2023-06-01T06:48:05;96214;;;17.8;44.6
77469;BME280;68840;50.272;12.818;2023-06-01T06:50:07;96213;;;17.8;45.0
77469;BME280;68840;50.272;12.818;2023-06-01T06:52:05;96211;;;17.8;43.8
77469;BME280;68840;50.272;12.818;2023-06-01T06:54:06;96212;;;17.7;44.3
77469;BME280;68840;50.272;12.818;2023-06-01T06:56:05;96211;;;17.7;44.0
77469;BME280;68840;50.272;12.818;2023-06-01T06:58:05;96210;;;17.7;44.2
77469;BME280;68840;50.272;12.818;2023-06-01T07:00:07;96211;;;17.8;44.6
77469;BME280;68840;50.272;12.818;2023-06-01T07:02:05;96213;;;17.8;44.0
77469;BME280;68840;50.272;12.818;2023-06-01T07:04:06;96215;;;17.9;44.9
77469;BME280;68840;50.272;12.818;2023-06-01T07:06:06;96213;;;17.9;44.1
77469;BME280;68840;50.272;12.818;2023-06-01T07:08:06;96216;;;18.0;43.9
77469;BME280;68840;50.272;12.818;2023-06-01T07:10:06;96215;;;18.0;43.8
77469;BME280;68840;50.272;12.818;2023-06-01T07:12:06;96213;;;18.1;45.6
77469;BME280;68840;50.272;12.818;2023-06-01T07:14:05;96212;;;18.1;44.3
77469;BME280;68840;50.272;12.818;2023-06-01T07:16:05;96210;;;18.2;43.9
77469;BME280;68840;50.272;12.818;2023-06-01T07:18:06;96209;;;18.2;44.9
77469;BME280;68840;50.272;12.818;2023-06-01T07:20:07;96207;;;18.2;45.0
77469;BME280;68840;50.272;12.818;2023-06-01T07:22:06;96206;;;18.2;44.7
77469;BME280;68840;50.272;12.818;2023-06-01T07:24:06;96204;;;18.3;44.4
77469;BME280;68840;50.272;12.818;2023-06-01T07:26:05;96201;;;18.4;43.3
77469;BME280;68840;50.272;12.818;2023-06-01T07:28:07;96202;;;18.4;44.6
77469;BME280;68840;50.272;12.818;2023-06-01T07:30:09;96201;;;18.4;42.7
77469;BME280;68840;50.272;12.818;2023-06-01T07:32:06;96199;;;18.5;42.6
77469;BME280;68840;50.272;12.818;2023-06-01T07:34:05;96199;;;18.4;42.8
77469;BME280;68840;50.272;12.818;2023-06-01T07:36:06;96200;;;18.4;43.0
77469;BME280;68840;50.272;12.818;2023-06-01T07:38:07;96197;;;18.4;43.3
77469;BME280;68840;50.272;12.818;2023-06-01T07:40:06;96197;;;18.4;43.7
77469;BME280;68840;50.272;12.818;2023-06-01T07:42:05;96198;;;18.4;44.4
77469;BME280;68840;50.272;12.818;2023-06-01T07:44:07;96198;;;18.5;43.8
77469;BME280;68840;50.272;12.818;2023-06-01T07:46:05;96196;;;18.5;43.8
77469;BME280;68840;50.272;12.818;2023-06-01T07:48:05;96195;;;18.5;43.0
77469;BME280;68840;50.272;12.818;2023-06-01T07:50:07;96195;;;18.5;43.5
77469;BME280;68840;50.272;12.818;2023-06-01T07:52:07;96194;;;18.6;43.2
77469;BME280;68840;50.272;12.818;2023-06-01T07:54:05;96192;;;18.6;44.1
77469;BME280;68840;50.272;12.818;2023-06-01T07:56:06;96193;;;18.6;43.4
77469;BME280;68840;50.272;12.818;2023-06-01T07:58:05;96191;;;18.7;44.2
77469;BME280;68840;50.272;12.818;2023-06-01T08:00:11;96192;;;18.7;44.4
77469;BME280;68840;50.272;12.818;2023-06-01T08:02:06;96190;;;18.8;43.0
77469;BME280;68840;50.272;12.818;2023-06-01T08:04:06;96191;;;18.9;43.1
77469;BME280;68840;50.272;12.818;2023-06-01T08:06:07;96191;;;19.0;42.3
77469;BME280;68840;50.272;12.818;2023-06-01T08:08:05;96188;;;19.1;43.7
77469;BME280;68840;50.272;12.818;2023-06-01T08:10:06;96189;;;19.2;42.1
77469;BME280;68840;50.272;12.818;2023-06-01T08:12:07;96189;;;19.4;43.2
77469;BME280;68840;50.272;12.818;2023-06-01T08:14:07;96187;;;19.5;43.6
77469;BME280;68840;50.272;12.818;2023-06-01T08:16:05;96185;;;19.6;43.4
77469;BME280;68840;50.272;12.818;2023-06-01T08:18:06;96183;;;19.7;41.7
77469;BME280;68840;50.272;12.818;2023-06-01T08:20:10;96181;;;19.8;41.6
77469;BME280;68840;50.272;12.818;2023-06-01T08:22:05;96181;;;19.8;42.0
77469;BME280;68840;50.272;12.818;2023-06-01T08:24:06;96178;;;19.8;41.3
77469;BME280;68840;50.272;12.818;2023-06-01T08:26:05;96174;;;19.9;43.0
77469;BME280;68840;50.272;12.818;2023-06-01T08:28:05;96170;;;20.0;42.1
77469;BME280;68840;50.272;12.818;2023-06-01T08:30:06;96166;;;20.1;42.1
77469;BME280;68840;50.272;12.818;2023-06-01T08:32:05;96164;;;20.3;41.5
77469;BME280;68840;50.272;12.818;2023-06-01T08:34:06;96161;;;20.3;41.8
77469;BME280;68840;50.272;12.818;2023-06-01T08:36:06;96158;;;20.4;41.9
77469;BME280;68840;50.272;12.818;2023-06-01T08:38:06;96157;;;20.5;41.3
77469;BME280;68840;50.272;12.818;2023-06-01T08:40:08;96154;;;20.6;41.2
77469;BME280;68840;50.272;12.818;2023-06-01T08:42:08;96153;;;20.7;41.8
77469;BME280;68840;50.272;12.818;2023-06-01T08:44:08;96151;;;20.9;41.6
77469;BME280;68840;50.272;12.818;2023-06-01T08:46:06;96150;;;21.0;40.4
77469;BME280;68840;50.272;12.818;2023-06-01T08:48:08;96145;;;21.1;38.6
77469;BME280;68840;50.272;12.818;2023-06-01T08:50:08;96144;;;21.3;39.1
77469;BME280;68840;50.272;12.818;2023-06-01T08:52:08;96142;;;21.4;39.1
77469;BME280;68840;50.272;12.818;2023-06-01T08:54:09;96145;;;21.5;39.8
77469;BME280;68840;50.272;12.818;2023-06-01T08:56:06;96146;;;21.6;37.7
77469;BME280;68840;50.272;12.818;2023-06-01T08:58:06;96146;;;21.8;36.4
77469;BME280;68840;50.272;12.818;2023-06-01T09:00:07;96144;;;21.8;36.3
77469;BME280;68840;50.272;12.818;2023-06-01T09:02:06;96142;;;21.9;37.2
77469;BME280;68840;50.272;12.818;2023-06-01T09:04:05;96139;;;22.0;37.5
77469;BME280;68840;50.272;12.818;2023-06-01T09:06:05;96138;;;22.0;37.2
77469;BME280;68840;50.272;12.818;2023-06-01T09:08:06;96135;;;22.1;36.7
77469;BME280;68840;50.272;12.818;2023-06-01T09:10:06;96135;;;22.1;37.3
77469;BME280;68840;50.272;12.818;2023-06-01T09:12:16;96134;;;22.2;38.5
77469;BME280;68840;50.272;12.818;2023-06-01T09:14:19;96131;;;22.3;37.4
77469;BME280;68840;50.272;12.818;2023-06-01T09:16:06;96128;;;22.4;36.4
77469;BME280;68840;50.272;12.818;2023-06-01T09:18:07;96127;;;22.5;36.6
77469;BME280;68840;50.272;12.818;2023-06-01T09:20:09;96126;;;22.6;35.6
77469;BME280;68840;50.272;12.818;2023-06-01T09:22:06;96126;;;22.8;35.7
77469;BME280;68840;50.272;12.818;2023-06-01T09:24:19;96126;;;22.9;35.3
77469;BME280;68840;50.272;12.818;2023-06-01T09:26:06;96126;;;23.0;35.5
77469;BME280;68840;50.272;12.818;2023-06-01T09:28:06;96123;;;23.1;35.2
77469;BME280;68840;50.272;12.818;2023-06-01T09:30:06;96120;;;23.1;34.7
77469;BME280;68840;50.272;12.818;2023-06-01T09:32:05;96122;;;23.1;35.7
77469;BME280;68840;50.272;12.818;2023-06-01T09:34:06;96120;;;23.2;36.5
77469;BME280;68840;50.272;12.818;2023-06-01T09:36:05;96119;;;23.4;36.7
77469;BME280;68840;50.272;12.818;2023-06-01T09:38:06;96118;;;23.6;34.4
77469;BME280;68840;50.272;12.818;2023-06-01T09:40:16;96114;;;23.8;34.4
77469;BME280;68840;50.272;12.818;2023-06-01T09:42:06;96113;;;23.9;34.6
77469;BME280;68840;50.272;12.818;2023-06-01T09:44:06;96111;;;24.0;33.9
77469;BME280;68840;50.272;12.818;2023-06-01T09:46:07;96108;;;24.0;32.9
77469;BME280;68840;50.272;12.818;2023-06-01T09:48:16;96105;;;24.1;32.5
77469;BME280;68840;50.272;12.818;2023-06-01T09:50:06;96104;;;24.1;32.9
77469;BME280;68840;50.272;12.818;2023-06-01T09:52:12;96103;;;24.1;32.3
77469;BME280;68840;50.272;12.818;2023-06-01T09:54:05;96102;;;24.1;32.4
77469;BME280;68840;50.272;12.818;2023-06-01T09:56:05;96101;;;24.2;33.3
77469;BME280;68840;50.272;12.818;2023-06-01T09:58:17;96101;;;24.3;33.2
77469;BME280;68840;50.272;12.818;2023-06-01T10:00:06;96098;;;24.3;34.1
77469;BME280;68840;50.272;12.818;2023-06-01T10:02:07;96098;;;24.3;33.5
77469;BME280;68840;50.272;12.818;2023-06-01T10:04:05;96094;;;24.3;33.6
77469;BME280;68840;50.272;12.818;2023-06-01T10:06:06;96092;;;24.3;33.9
77469;BME280;68840;50.272;12.818;2023-06-01T10:08:06;96093;;;24.3;33.5
77469;BME280;68840;50.272;12.818;2023-06-01T10:10:06;96093;;;24.3;33.4
77469;BME280;68840;50.272;12.818;2023-06-01T10:12:07;96088;;;24.2;34.0
77469;BME280;68840;50.272;12.818;2023-06-01T10:14:06;96085;;;24.2;34.2
77469;BME280;68840;50.272;12.818;2023-06-01T10:16:06;96087;;;24.3;33.9
77469;BME280;68840;50.272;12.818;2023-06-01T10:18:06;96085;;;24.3;34.4
77469;BME280;68840;50.272;12.818;2023-06-01T10:20:06;96088;;;24.3;33.7
77469;BME280;68840;50.272;12.818;2023-06-01T10:22:06;96087;;;24.4;34.6
77469;BME280;68840;50.272;12.818;2023-06-01T10:24:06;96088;;;24.4;34.7
77469;BME280;68840;50.272;12.818;2023-06-01T10:26:10;96088;;;24.5;33.7
77469;BME280;68840;50.272;12.818;2023-06-01T10:28:08;96088;;;24.5;34.3
77469;BME280;68840;50.272;12.818;2023-06-01T10:30:07;96086;;;24.5;34.4
77469;BME280;68840;50.272;12.818;2023-06-01T10:34:06;96077;;;24.8;34.0
77469;BME280;68840;50.272;12.818;2023-06-01T10:36:05;96074;;;24.9;33.5
77469;BME280;68840;50.272;12.818;2023-06-01T10:38:24;96073;;;25.0;32.9
77469;BME280;68840;50.272;12.818;2023-06-01T10:40:19;96068;;;25.1;32.9
77469;BME280;68840;50.272;12.818;2023-06-01T10:42:34;96066;;;25.1;32.2
77469;BME280;68840;50.272;12.818;2023-06-01T10:44:05;96065;;;25.1;33.2
77469;BME280;68840;50.272;12.818;2023-06-01T10:48:06;96064;;;25.2;32.3
77469;BME280;68840;50.272;12.818;2023-06-01T10:50:07;96063;;;25.2;33.2
77469;BME280;68840;50.272;12.818;2023-06-01T10:52:32;96063;;;25.3;32.2
77469;BME280;68840;50.272;12.818;2023-06-01T10:54:24;96059;;;25.3;32.4
77469;BME280;68840;50.272;12.818;2023-06-01T10:56:19;96061;;;25.3;32.4
77469;BME280;68840;50.272;12.818;2023-06-01T10:58:20;96058;;;25.4;32.2
77469;BME280;68840;50.272;12.818;2023-06-01T11:00:17;96058;;;25.4;32.9
77469;BME280;68840;50.272;12.818;2023-06-01T11:02:06;96055;;;25.4;31.8
77469;BME280;68840;50.272;12.818;2023-06-01T11:04:06;96053;;;25.3;31.8
77469;BME280;68840;50.272;12.818;2023-06-01T11:06:23;96051;;;25.3;33.5
77469;BME280;68840;50.272;12.818;2023-06-01T11:08:06;96050;;;25.3;31.4
77469;BME280;68840;50.272;12.818;2023-06-01T11:10:06;96046;;;25.4;32.9
77469;BME280;68840;50.272;12.818;2023-06-01T11:12:06;96044;;;25.4;31.7
77469;BME280;68840;50.272;12.818;2023-06-01T11:14:07;96044;;;25.4;32.7
77469;BME280;68840;50.272;12.818;2023-06-01T11:16:35;96041;;;25.5;32.2